createdAt,value
2022-08-26T00:01:54.304Z,71680.19
2022-08-26T00:04:26.076Z,71630.97
2022-08-26T00:06:55.715Z,71779.81
2022-08-26T00:09:25.264Z,71697.81
2022-08-26T00:11:54.260Z,71644.50
2022-08-26T00:14:28.332Z,71655.69
2022-08-26T00:16:58.669Z,71668.91
2022-08-26T00:19:25.701Z,71706.88
2022-08-26T00:21:52.825Z,71723.91
2022-08-26T00:24:21.763Z,71708.97
2022-08-26T00:26:49.942Z,71653.97
2022-08-26T00:29:21.345Z,71637.53
2022-08-26T00:31:49.965Z,71667.16
2022-08-26T00:34:19.392Z,71662.19
2022-08-26T00:36:47.372Z,71611.44
2022-08-26T00:39:16.313Z,71664.59
2022-08-26T00:41:43.681Z,71774.69
2022-08-26T00:44:11.243Z,71812.34
2022-08-26T00:46:49.219Z,71693.00
2022-08-26T00:49:43.727Z,71632.47
2022-08-26T00:52:18.761Z,71690.41
2022-08-26T00:55:20.523Z,71688.56
2022-08-26T00:57:51.571Z,71666.50
2022-08-26T01:00:25.170Z,71655.22
2022-08-26T01:02:54.821Z,71619.41
2022-08-26T01:05:23.790Z,71665.75
2022-08-26T01:07:51.383Z,71581.84
2022-08-26T01:10:27.521Z,71710.84
2022-08-26T01:13:10.202Z,71685.16
2022-08-26T01:15:54.857Z,71622.19
2022-08-26T01:18:22.786Z,71658.31
2022-08-26T01:21:14.196Z,71670.31
2022-08-26T01:23:49.042Z,71691.75
2022-08-26T01:26:50.306Z,71639.06
2022-08-26T01:29:20.165Z,71787.63
2022-08-26T01:31:55.444Z,71611.09
2022-08-26T01:34:30.808Z,71643.44
2022-08-26T01:37:16.876Z,71586.50
2022-08-26T01:39:48.618Z,71604.94
2022-08-26T01:42:19.681Z,71714.06
2022-08-26T01:44:57.775Z,71671.63
2022-08-26T01:47:30.341Z,71634.69
2022-08-26T01:50:02.977Z,71641.31
2022-08-26T01:52:33.523Z,71618.06
2022-08-26T01:55:01.577Z,71638.28
2022-08-26T01:57:29.296Z,71640.81
2022-08-26T02:00:01.858Z,71611.31
2022-08-26T02:02:45.106Z,71625.50
2022-08-26T02:05:21.594Z,71664.53
2022-08-26T02:07:50.739Z,71615.31
2022-08-26T02:10:17.764Z,71664.66
2022-08-26T02:12:47.821Z,71652.09
2022-08-26T02:15:15.290Z,71640.25
2022-08-26T02:17:47.195Z,71670.19
2022-08-26T02:20:19.256Z,71641.88
2022-08-26T02:22:47.826Z,71639.72
2022-08-26T02:25:32.853Z,71632.94
2022-08-26T02:28:01.282Z,71681.56
2022-08-26T02:30:33.567Z,71596.78
2022-08-26T02:33:05.495Z,71658.09
2022-08-26T02:35:35.620Z,71618.81
2022-08-26T02:38:09.951Z,71552.72
2022-08-26T02:40:42.140Z,71670.00
2022-08-26T02:43:09.741Z,71597.81
2022-08-26T02:45:37.027Z,71658.69
2022-08-26T02:48:15.223Z,71664.03
2022-08-26T02:50:43.417Z,71633.03
2022-08-26T02:53:12.119Z,71652.09
2022-08-26T02:55:40.888Z,71579.50
2022-08-26T02:58:09.848Z,71633.09
2022-08-26T03:00:38.969Z,71620.88
2022-08-26T03:03:22.491Z,71592.84
2022-08-26T03:05:51.918Z,71575.31
2022-08-26T03:08:19.801Z,71631.97
2022-08-26T03:10:47.612Z,71600.06
2022-08-26T03:13:15.555Z,71598.31
2022-08-26T03:15:42.741Z,71574.84
2022-08-26T03:18:11.019Z,71573.03
2022-08-26T03:20:38.720Z,71607.06
2022-08-26T03:23:05.716Z,71586.28
2022-08-26T03:25:34.262Z,71585.75
2022-08-26T03:28:02.380Z,71617.09
2022-08-26T03:30:44.664Z,71651.66
2022-08-26T03:33:14.080Z,71586.09
2022-08-26T03:35:45.112Z,71579.28
2022-08-26T03:38:12.817Z,71589.34
2022-08-26T03:40:42.479Z,71613.53
2022-08-26T03:43:11.870Z,71614.72
2022-08-26T03:45:40.814Z,71675.22
2022-08-26T03:48:09.001Z,71574.00
2022-08-26T03:50:36.252Z,71612.88
2022-08-26T03:53:04.277Z,71577.06
2022-08-26T03:55:34.530Z,71606.28
2022-08-26T03:58:02.190Z,71541.34
2022-08-26T04:00:30.247Z,71543.53
2022-08-26T04:02:57.443Z,71543.88
2022-08-26T04:05:25.329Z,71509.94
2022-08-26T04:07:52.940Z,71526.66
2022-08-26T04:10:28.494Z,71598.25
2022-08-26T04:13:00.140Z,71558.31
2022-08-26T04:15:28.115Z,71545.09
2022-08-26T04:17:55.807Z,71584.00
2022-08-26T04:20:23.235Z,71582.81
2022-08-26T04:22:51.129Z,71522.41
2022-08-26T04:25:18.639Z,71454.75
2022-08-26T04:27:48.317Z,71550.00
2022-08-26T04:30:16.010Z,71556.13
2022-08-26T04:32:44.108Z,71505.34
2022-08-26T04:35:11.486Z,71534.59
2022-08-26T04:37:42.701Z,71498.03
2022-08-26T04:40:11.470Z,71495.91
2022-08-26T04:42:38.591Z,71533.78
2022-08-26T04:45:10.202Z,71508.66
2022-08-26T04:47:38.123Z,71537.19
2022-08-26T04:50:07.523Z,71594.97
2022-08-26T04:52:36.627Z,71620.56
2022-08-26T04:55:06.633Z,71534.94
2022-08-26T04:57:35.790Z,71590.19
2022-08-26T05:00:06.927Z,71572.34
2022-08-26T05:02:34.332Z,71699.44
2022-08-26T05:05:01.584Z,71569.72
2022-08-26T05:07:28.691Z,71548.41
2022-08-26T05:09:55.669Z,71559.78
2022-08-26T05:12:23.325Z,71681.94
2022-08-26T05:14:50.359Z,71572.19
2022-08-26T05:17:18.993Z,71514.66
2022-08-26T05:19:47.091Z,71521.47
2022-08-26T05:22:15.022Z,71550.09
2022-08-26T05:24:43.187Z,71550.72
2022-08-26T05:27:11.870Z,71445.44
2022-08-26T05:29:40.895Z,71543.06
2022-08-26T05:32:07.996Z,71507.66
2022-08-26T05:34:35.015Z,71520.44
2022-08-26T05:37:02.071Z,71547.41
2022-08-26T05:39:29.465Z,71474.75
2022-08-26T05:41:56.556Z,71502.75
2022-08-26T05:44:24.466Z,71502.00
2022-08-26T05:46:51.945Z,71543.69
2022-08-26T05:49:20.316Z,71592.25
2022-08-26T05:51:49.541Z,71559.97
2022-08-26T05:54:22.132Z,71560.91
2022-08-26T05:56:51.889Z,71578.78
2022-08-26T05:59:24.028Z,71549.34
2022-08-26T06:01:54.705Z,71545.31
2022-08-26T06:04:27.534Z,71543.78
2022-08-26T06:06:56.918Z,71571.97
2022-08-26T06:09:24.226Z,71552.38
2022-08-26T06:11:51.818Z,71531.75
2022-08-26T06:14:20.601Z,71518.47
2022-08-26T06:16:47.898Z,71594.38
2022-08-26T06:19:15.616Z,71544.97
2022-08-26T06:21:47.850Z,71630.28
2022-08-26T06:24:39.904Z,71669.56
2022-08-26T06:27:09.934Z,71670.59
2022-08-26T06:29:38.534Z,71729.91
2022-08-26T06:32:06.771Z,71639.69
2022-08-26T06:34:34.143Z,71685.34
2022-08-26T06:37:02.817Z,71667.63
2022-08-26T06:39:32.013Z,71731.19
2022-08-26T06:42:01.104Z,71700.75
2022-08-26T06:44:30.730Z,71720.75
2022-08-26T06:46:59.568Z,71676.97
2022-08-26T06:49:27.804Z,71719.13
2022-08-26T06:51:58.400Z,71723.72
2022-08-26T06:54:31.444Z,71678.03
2022-08-26T06:56:59.071Z,71696.63
2022-08-26T06:59:26.837Z,71714.34
2022-08-26T07:01:54.719Z,71736.97
2022-08-26T07:04:24.443Z,71679.75
2022-08-26T07:06:53.587Z,71731.81
2022-08-26T07:09:27.955Z,71734.25
2022-08-26T07:11:56.339Z,71732.13
2022-08-26T07:14:24.380Z,71761.88
2022-08-26T07:16:52.060Z,71777.09
2022-08-26T07:19:30.066Z,71834.28
2022-08-26T07:22:04.750Z,71825.78
2022-08-26T07:24:38.243Z,71890.66
2022-08-26T07:27:09.858Z,71907.81
2022-08-26T07:29:39.471Z,71822.34
2022-08-26T07:32:08.137Z,71979.34
2022-08-26T07:34:37.734Z,71878.56
2022-08-26T07:37:08.910Z,71948.94
2022-08-26T07:39:37.699Z,71966.78
2022-08-26T07:42:10.645Z,71942.38
2022-08-26T07:44:39.651Z,71927.50
2022-08-26T07:47:19.406Z,71936.84
2022-08-26T07:49:55.722Z,71946.53
2022-08-26T07:52:27.190Z,72043.03
2022-08-26T07:54:58.140Z,72076.56
2022-08-26T07:57:26.880Z,72061.94
2022-08-26T07:59:55.074Z,72094.44
2022-08-26T08:02:24.835Z,72115.19
2022-08-26T08:04:52.775Z,72163.56
2022-08-26T08:07:20.233Z,72231.78
2022-08-26T08:09:49.589Z,72262.22
2022-08-26T08:12:19.107Z,72304.41
2022-08-26T08:14:48.240Z,72317.41
2022-08-26T08:17:16.395Z,72335.81
2022-08-26T08:19:43.826Z,72401.75
2022-08-26T08:22:17.367Z,72391.03
2022-08-26T08:24:45.258Z,72429.28
2022-08-26T08:27:23.286Z,72478.22
2022-08-26T08:29:54.310Z,72532.78
2022-08-26T08:32:23.906Z,72645.81
2022-08-26T08:34:50.919Z,72705.06
2022-08-26T08:37:18.001Z,72887.53
2022-08-26T08:39:45.405Z,72898.16
2022-08-26T08:45:37.056Z,73071.41
2022-08-26T08:48:27.765Z,73230.97
2022-08-26T08:51:27.794Z,73441.19
2022-08-26T08:53:56.307Z,73669.53
2022-08-26T08:56:38.938Z,73726.75
2022-08-26T08:59:18.232Z,73850.72
2022-08-26T09:01:52.538Z,73800.53
2022-08-26T09:04:54.942Z,73879.78
2022-08-26T09:07:37.320Z,73819.91
2022-08-26T09:10:51.476Z,73854.66
2022-08-26T09:13:24.904Z,74008.72
2022-08-26T09:16:15.787Z,74131.47
2022-08-26T09:19:25.590Z,74270.06
2022-08-26T09:22:02.256Z,74036.69
2022-08-26T09:24:41.792Z,73602.22
2022-08-26T09:27:50.524Z,73406.88
2022-08-26T09:30:37.279Z,73201.00
2022-08-26T09:33:15.943Z,73062.34
2022-08-26T09:35:48.763Z,73084.03
2022-08-26T09:38:28.227Z,72927.41
2022-08-26T09:41:01.724Z,72866.38
2022-08-26T09:43:29.597Z,72811.50
2022-08-26T09:46:14.721Z,72828.28
2022-08-26T09:48:42.985Z,72722.47
2022-08-26T09:51:23.126Z,72764.84
2022-08-26T09:54:01.778Z,72723.50
2022-08-26T09:56:36.695Z,72664.38
2022-08-26T09:59:11.027Z,72654.06
2022-08-26T10:01:44.931Z,72676.75
2022-08-26T10:04:22.686Z,72668.31
2022-08-26T10:07:04.136Z,72712.72
2022-08-26T10:09:43.350Z,72638.00
2022-08-26T10:12:21.169Z,72580.44
2022-08-26T10:15:08.093Z,72518.94
2022-08-26T10:17:40.180Z,72431.63
2022-08-26T10:20:28.922Z,72376.75
2022-08-26T10:23:07.280Z,72349.34
2022-08-26T10:25:51.300Z,72337.84
2022-08-26T10:28:40.700Z,72338.19
2022-08-26T10:31:27.878Z,72338.78
2022-08-26T10:34:00.122Z,72340.78
2022-08-26T10:37:10.554Z,72342.34
2022-08-26T10:40:02.604Z,72339.69
2022-08-26T10:42:37.758Z,72346.91
2022-08-26T10:45:22.011Z,72385.34
2022-08-26T10:48:06.793Z,72405.38
2022-08-26T10:50:41.650Z,72535.03
2022-08-26T10:53:32.731Z,72618.53
2022-08-26T10:56:18.932Z,72819.53
2022-08-26T10:59:00.342Z,72914.94
2022-08-26T11:01:44.184Z,72906.28
2022-08-26T11:04:47.694Z,72845.19
2022-08-26T11:07:46.790Z,72698.28
2022-08-26T11:10:16.696Z,72716.31
2022-08-26T11:12:45.333Z,72930.59
2022-08-26T11:15:26.192Z,73158.03
2022-08-26T11:17:55.254Z,73376.78
2022-08-26T11:20:42.113Z,73511.34
2022-08-26T11:23:24.221Z,73460.81
2022-08-26T11:26:35.691Z,73505.72
2022-08-26T11:29:13.370Z,73400.28
2022-08-26T11:31:50.356Z,73476.66
2022-08-26T11:34:37.446Z,73410.34
2022-08-26T11:37:17.010Z,73245.34
2022-08-26T11:39:55.477Z,73276.84
2022-08-26T11:42:43.514Z,73513.44
2022-08-26T11:45:24.239Z,73793.03
2022-08-26T11:47:52.243Z,74036.72
2022-08-26T11:50:27.309Z,74187.91
2022-08-26T11:53:01.953Z,74196.22
2022-08-26T11:55:32.365Z,74182.63
2022-08-26T11:58:04.659Z,74069.16
2022-08-26T12:00:46.601Z,74049.41
2022-08-26T12:03:23.498Z,74252.13
2022-08-26T12:05:53.498Z,74010.97
2022-08-26T12:08:27.982Z,73859.78
2022-08-26T12:11:08.547Z,73884.66
2022-08-26T12:13:39.017Z,73809.94
2022-08-26T12:16:07.358Z,73671.03
2022-08-26T12:18:38.855Z,73543.06
2022-08-26T12:21:24.295Z,73542.41
2022-08-26T12:23:59.158Z,73497.66
2022-08-26T12:26:37.136Z,73533.06
2022-08-26T12:29:27.457Z,73478.84
2022-08-26T12:32:15.837Z,73539.22
2022-08-26T12:34:47.265Z,73406.84
2022-08-26T12:37:15.621Z,73573.97
2022-08-26T12:39:44.948Z,73559.03
2022-08-26T12:42:17.441Z,73536.94
2022-08-26T12:45:01.931Z,73562.97
2022-08-26T12:47:43.102Z,73549.09
2022-08-26T12:50:25.509Z,73489.63
2022-08-26T12:53:10.557Z,73480.00
2022-08-26T12:55:55.185Z,73534.91
2022-08-26T12:58:29.947Z,73508.69
2022-08-26T13:01:06.516Z,73600.53
2022-08-26T13:03:45.598Z,73609.88
2022-08-26T13:06:38.639Z,73389.22
2022-08-26T13:09:30.288Z,73403.41
2022-08-26T13:11:59.637Z,73352.16
2022-08-26T13:14:29.193Z,73265.97
2022-08-26T13:16:56.266Z,73416.81
2022-08-26T13:19:26.690Z,73405.78
2022-08-26T13:22:00.377Z,73496.03
2022-08-26T13:24:36.618Z,73501.69
2022-08-26T13:27:06.805Z,73482.41
2022-08-26T13:29:36.794Z,73508.41
2022-08-26T13:32:06.690Z,73514.53
2022-08-26T13:34:36.773Z,73467.44
2022-08-26T13:37:04.790Z,73463.75
2022-08-26T13:39:32.918Z,73536.72
2022-08-26T13:42:00.267Z,73456.94
2022-08-26T13:44:27.720Z,73330.34
2022-08-26T13:46:55.975Z,73303.25
2022-08-26T13:49:23.108Z,73207.41
2022-08-26T13:51:51.410Z,73239.34
2022-08-26T13:54:18.585Z,73142.31
2022-08-26T13:56:45.949Z,73135.09
2022-08-26T13:59:13.063Z,73141.63
2022-08-26T14:01:40.250Z,73106.19
2022-08-26T14:04:08.599Z,73020.00
2022-08-26T14:06:35.756Z,73082.78
2022-08-26T14:09:03.228Z,73046.41
2022-08-26T14:11:41.140Z,73044.66
2022-08-26T14:14:17.416Z,73018.53
2022-08-26T14:16:59.072Z,73078.19
2022-08-26T14:19:31.561Z,73062.94
2022-08-26T14:22:00.942Z,72926.97
2022-08-26T14:24:29.325Z,72914.19
2022-08-26T14:26:56.561Z,72913.66
2022-08-26T14:29:23.606Z,72963.19
2022-08-26T14:31:50.811Z,73081.94
2022-08-26T14:34:18.173Z,73019.50
2022-08-26T14:36:45.247Z,73131.28
2022-08-26T14:39:14.752Z,73101.66
2022-08-26T14:41:54.496Z,73083.47
2022-08-26T14:44:27.814Z,73134.41
2022-08-26T14:46:55.759Z,73077.72
2022-08-26T14:49:27.217Z,73090.28
2022-08-26T14:51:55.553Z,73180.25
2022-08-26T14:54:22.623Z,73168.88
2022-08-26T14:56:59.269Z,73128.50
2022-08-26T14:59:31.150Z,73168.66
2022-08-26T15:01:59.191Z,73267.34
2022-08-26T15:04:27.055Z,73141.97
2022-08-26T15:06:57.370Z,73191.56
2022-08-26T15:09:25.457Z,73234.13
2022-08-26T15:11:53.311Z,73250.94
2022-08-26T15:14:21.999Z,73253.88
2022-08-26T15:16:52.739Z,73333.50
2022-08-26T15:19:20.996Z,73306.81
2022-08-26T15:21:48.791Z,73319.38
2022-08-26T15:24:20.352Z,73295.16
2022-08-26T15:26:48.565Z,73239.78
2022-08-26T15:29:15.965Z,73199.47
2022-08-26T15:31:43.364Z,73215.19
2022-08-26T15:34:16.425Z,73220.66
2022-08-26T15:36:47.085Z,73210.63
2022-08-26T15:39:16.621Z,73252.16
2022-08-26T15:41:44.025Z,73206.16
2022-08-26T15:44:13.218Z,73132.63
2022-08-26T15:46:41.999Z,73134.28
2022-08-26T15:49:17.564Z,73174.69
2022-08-26T15:51:48.217Z,73303.59
2022-08-26T15:54:17.997Z,73207.41
2022-08-26T15:56:47.318Z,73190.91
2022-08-26T15:59:16.132Z,73139.63
2022-08-26T16:01:43.631Z,73141.69
2022-08-26T16:04:11.505Z,73051.34
2022-08-26T16:06:41.290Z,72973.59
2022-08-26T16:09:09.137Z,72929.09
2022-08-26T16:11:37.710Z,72901.47
2022-08-26T16:14:05.632Z,72860.59
2022-08-26T16:16:33.242Z,72805.53
2022-08-26T16:19:04.278Z,72970.50
2022-08-26T16:21:34.326Z,72800.88
2022-08-26T16:24:01.431Z,72758.16
2022-08-26T16:26:32.863Z,72697.91
2022-08-26T16:29:05.045Z,72655.59
2022-08-26T16:31:32.639Z,72576.09
2022-08-26T16:33:59.770Z,72670.50
2022-08-26T16:36:27.313Z,72602.53
2022-08-26T16:38:56.470Z,72595.59
2022-08-26T16:41:27.194Z,72591.81
2022-08-26T16:43:55.109Z,72541.91
2022-08-26T16:46:26.219Z,72550.16
2022-08-26T16:48:58.530Z,72539.97
2022-08-26T16:51:28.069Z,72546.97
2022-08-26T16:53:57.447Z,72545.22
2022-08-26T16:56:33.471Z,72466.41
2022-08-26T16:59:05.607Z,72509.50
2022-08-26T17:01:32.724Z,72560.50
2022-08-26T17:04:00.020Z,72403.38
2022-08-26T17:06:27.248Z,72452.59
2022-08-26T17:08:54.349Z,72433.81
2022-08-26T17:11:21.412Z,72574.38
2022-08-26T17:13:48.517Z,72399.94
2022-08-26T17:16:15.788Z,72349.25
2022-08-26T17:18:43.055Z,72331.19
2022-08-26T17:21:13.398Z,72305.03
2022-08-26T17:23:43.435Z,72293.41
2022-08-26T17:26:12.323Z,72298.09
2022-08-26T17:28:39.949Z,72264.03
2022-08-26T17:31:09.557Z,72220.22
2022-08-26T17:33:37.668Z,72259.31
2022-08-26T17:36:07.450Z,72217.25
2022-08-26T17:38:35.746Z,72246.69
2022-08-26T17:41:03.385Z,72211.25
2022-08-26T17:43:31.076Z,72222.97
2022-08-26T17:46:07.147Z,72173.50
2022-08-26T17:48:37.462Z,72240.75
2022-08-26T17:51:14.343Z,72214.97
2022-08-26T17:53:43.090Z,72213.34
2022-08-26T17:56:14.325Z,72199.25
2022-08-26T17:58:51.063Z,72182.75
2022-08-26T18:01:20.827Z,72142.44
2022-08-26T18:03:49.060Z,72161.41
2022-08-26T18:06:16.366Z,72129.28
2022-08-26T18:08:44.857Z,72133.53
2022-08-26T18:11:20.577Z,72188.81
2022-08-26T18:13:48.017Z,72139.78
2022-08-26T18:16:17.673Z,72159.31
2022-08-26T18:18:46.818Z,72231.47
2022-08-26T18:21:21.842Z,72160.38
2022-08-26T18:23:51.002Z,72113.91
2022-08-26T18:26:27.184Z,72146.66
2022-08-26T18:28:54.998Z,72138.28
2022-08-26T18:31:22.169Z,72090.03
2022-08-26T18:33:50.213Z,72072.09
2022-08-26T18:36:26.113Z,72105.66
2022-08-26T18:38:54.358Z,72060.72
2022-08-26T18:41:24.147Z,72091.94
2022-08-26T18:43:54.238Z,72079.47
2022-08-26T18:46:27.699Z,72069.28
2022-08-26T18:48:56.784Z,72061.28
2022-08-26T18:51:34.339Z,72024.69
2022-08-26T18:54:06.412Z,71982.50
2022-08-26T18:56:36.894Z,72039.38
2022-08-26T18:59:06.303Z,72057.13
2022-08-26T19:01:36.012Z,72019.13
2022-08-26T19:04:05.915Z,72041.06
2022-08-26T19:06:35.691Z,72053.72
2022-08-26T19:09:05.335Z,72057.03
2022-08-26T19:11:37.628Z,72037.31
2022-08-26T19:14:15.970Z,72013.09
2022-08-26T19:16:46.946Z,72124.84
2022-08-26T19:19:15.431Z,72027.50
2022-08-26T19:21:43.013Z,72008.63
2022-08-26T19:24:17.247Z,72054.81
2022-08-26T19:26:49.447Z,72035.44
2022-08-26T19:29:20.837Z,72005.53
2022-08-26T19:31:48.665Z,72060.97
2022-08-26T19:34:17.508Z,72037.22
2022-08-26T19:36:49.213Z,72012.06
2022-08-26T19:39:16.256Z,72001.81
2022-08-26T19:41:43.975Z,71964.97
2022-08-26T19:44:35.815Z,71981.59
2022-08-26T19:47:04.204Z,72020.16
2022-08-26T19:49:32.256Z,71960.69
2022-08-26T19:52:00.698Z,71968.69
2022-08-26T19:54:28.369Z,72012.19
2022-08-26T19:56:55.381Z,71976.84
2022-08-26T19:59:22.425Z,71982.28
2022-08-26T20:01:52.898Z,72096.22
2022-08-26T20:04:28.042Z,71983.91
2022-08-26T20:06:58.663Z,71975.97
2022-08-26T20:09:33.014Z,71920.47
2022-08-26T20:12:01.275Z,71897.09
2022-08-26T20:14:29.867Z,71906.22
2022-08-26T20:16:57.450Z,71926.97
2022-08-26T20:19:44.011Z,71913.41
2022-08-26T20:22:11.810Z,71932.97
2022-08-26T20:24:39.285Z,71943.00
2022-08-26T20:27:07.912Z,71934.66
2022-08-26T20:29:36.991Z,71942.13
2022-08-26T20:32:08.047Z,71950.34
2022-08-26T20:34:37.209Z,71935.25
2022-08-26T20:37:05.433Z,71941.28
2022-08-26T20:39:32.587Z,71923.84
2022-08-26T20:41:59.710Z,71927.78
2022-08-26T20:44:30.525Z,71942.44
2022-08-26T20:46:59.145Z,71939.44
2022-08-26T20:49:28.307Z,71919.97
2022-08-26T20:51:55.398Z,71904.69
2022-08-26T20:54:28.509Z,71935.28
2022-08-26T20:56:58.411Z,71918.84
2022-08-26T20:59:26.871Z,71956.31
2022-08-26T21:01:54.330Z,71899.88
2022-08-26T21:04:25.111Z,71832.09
2022-08-26T21:06:54.364Z,71868.47
2022-08-26T21:09:25.766Z,71889.50
2022-08-26T21:11:54.720Z,71830.94
2022-08-26T21:14:25.643Z,71843.44
2022-08-26T21:16:53.673Z,71843.28
2022-08-26T21:19:20.792Z,71848.16
2022-08-26T21:21:48.959Z,71823.66
2022-08-26T21:24:17.216Z,71781.53
2022-08-26T21:26:45.014Z,71806.94
2022-08-26T21:29:13.729Z,71790.31
2022-08-26T21:31:45.999Z,71762.13
2022-08-26T21:34:16.919Z,71818.56
2022-08-26T21:36:46.119Z,71736.72
2022-08-26T21:39:14.468Z,71788.69
2022-08-26T21:41:43.755Z,71683.84
2022-08-26T21:44:13.300Z,71825.72
2022-08-26T21:46:42.087Z,71751.47
2022-08-26T21:49:13.459Z,71734.63
2022-08-26T21:51:46.038Z,71681.94
2022-08-26T21:54:14.424Z,71674.72
2022-08-26T21:56:46.159Z,71705.56
2022-08-26T21:59:18.963Z,71680.97
2022-08-26T22:01:47.126Z,71706.09
2022-08-26T22:04:15.740Z,71703.81
2022-08-26T22:06:50.013Z,71803.34
2022-08-26T22:09:23.740Z,71724.63
2022-08-26T22:11:53.143Z,71721.06
2022-08-26T22:14:30.364Z,71708.72
2022-08-26T22:16:59.887Z,71744.91
2022-08-26T22:19:27.355Z,71732.59
2022-08-26T22:21:55.836Z,71715.75
2022-08-26T22:24:26.730Z,71710.47
2022-08-26T22:26:55.523Z,71685.56
2022-08-26T22:29:25.126Z,71718.88
2022-08-26T22:31:53.088Z,71728.88
2022-08-26T22:34:21.273Z,71726.84
2022-08-26T22:36:49.977Z,71637.31
2022-08-26T22:39:22.440Z,71707.06
2022-08-26T22:41:50.629Z,71718.50
2022-08-26T22:44:20.468Z,71695.47
2022-08-26T22:46:51.341Z,71678.88
2022-08-26T22:49:19.593Z,71688.06
2022-08-26T22:51:47.377Z,71686.81
2022-08-26T22:54:15.730Z,71703.00
2022-08-26T22:56:45.087Z,71708.38
2022-08-26T22:59:13.163Z,71673.75
2022-08-26T23:01:44.146Z,71651.25
2022-08-26T23:04:11.773Z,71617.75
2022-08-26T23:06:43.097Z,71691.75
2022-08-26T23:09:11.055Z,71637.59
2022-08-26T23:11:42.817Z,71733.56
2022-08-26T23:14:10.342Z,71703.38
2022-08-26T23:16:41.630Z,71674.59
2022-08-26T23:19:12.797Z,71636.09
2022-08-26T23:21:40.771Z,71698.25
2022-08-26T23:24:09.850Z,71753.09
2022-08-26T23:26:38.406Z,71723.50
2022-08-26T23:29:08.385Z,71705.94
2022-08-26T23:31:38.578Z,71705.47
2022-08-26T23:34:25.359Z,71674.28
2022-08-26T23:36:53.823Z,71659.84
2022-08-26T23:39:21.257Z,71664.78
2022-08-26T23:41:48.399Z,71674.66
2022-08-26T23:44:15.525Z,71657.44
2022-08-26T23:46:42.637Z,71598.09
2022-08-26T23:49:09.700Z,71650.34
2022-08-26T23:51:57.338Z,71736.97
2022-08-26T23:54:24.495Z,71647.31
2022-08-26T23:56:51.818Z,71659.16
2022-08-26T23:59:18.964Z,71676.66
